Thursday, January 18, 2018, 8:46 PM EST

KPTW, Pottstown Limerick Airport

Location: Royersford, PA, United States Lat: 40.233
Local Time: 8:46 PM EST ( 1:46 GMT) Lon: -75.55
Time Zone: US/Eastern Elev: 291 ft

Show me the last for .
Show Decoded

2018-01-18 19:54 METAR KPTW 190054Z AUTO 00000KT 9SM CLR M06/M12 A3007 RMK AO2 SLP186 T10611122 =
2018-01-18 18:54 METAR KPTW 182354Z AUTO 32004KT 9SM CLR M03/M13 A3006 RMK AO2 SLP183 T10331128
                 11006 21044 53021 =
2018-01-18 17:54 METAR KPTW 182254Z AUTO 32003KT 9SM CLR M03/M12 A3004 RMK AO2 SLP174 T10281122 =
2018-01-18 16:54 METAR KPTW 182154Z AUTO 32006KT 8SM CLR M02/M12 A3001 RMK AO2 SLP164 T10171122 =
2018-01-18 15:54 METAR KPTW 182054Z AUTO 29008KT 9SM CLR M01/M12 A3000 RMK AO2 SLP162 T10061117
                 55008 =
2018-01-18 14:54 METAR KPTW 181954Z AUTO 30011G19KT 9SM CLR M01/M12 A2999 RMK AO2 SLP158
                 T10061122 =
2018-01-18 13:54 METAR KPTW 181854Z AUTO 31012G19KT 9SM CLR M01/M13 A2999 RMK AO2 SLP159
                 T10111128 =
2018-01-18 12:54 METAR KPTW 181754Z AUTO 29011G16KT 9SM CLR M02/M14 A3003 RMK AO2 SLP170
                 T10221139 11022 21133 58033 =
2018-01-18 11:54 METAR KPTW 181654Z AUTO 29012G23KT 9SM CLR M03/M14 A3005 RMK AO2 SLP179
                 T10331144 =
2018-01-18 10:54 METAR KPTW 181554Z AUTO 29009G20KT 9SM CLR M04/M14 A3010 RMK AO2 SLP196
                 T10441144 =
2018-01-18 09:54 METAR KPTW 181454Z AUTO 29007KT 8SM CLR M06/M14 A3012 RMK AO2 SLP203 T10611144
                 55006 =
2018-01-18 08:54 METAR KPTW 181354Z AUTO 29005KT 7SM CLR M08/M15 A3011 RMK AO2 SLP201 T10831150 =
2018-01-18 07:54 METAR KPTW 181254Z AUTO 00000KT 6SM HZ CLR M12/M16 A3013 RMK AO2 SLP206
                 T11221161 =
2018-01-18 06:54 METAR KPTW 181154Z AUTO 00000KT 8SM CLR M11/M16 A3014 RMK AO2 SLP210 T11061156
                 11100 21111 53015 =
2018-01-18 05:54 METAR KPTW 181054Z AUTO 27004KT 8SM CLR M11/M15 A3009 RMK AO2 SLP191 T11061150 =
2018-01-18 04:54 METAR KPTW 180954Z AUTO 30006KT 9SM CLR M11/M16 A3008 RMK AO2 SLP188 T11061156 =
2018-01-18 03:54 METAR KPTW 180854Z AUTO 31007KT 9SM CLR M11/M15 A3010 RMK AO2 SLP194 T11061150
                 58037 =
2018-01-18 02:54 METAR KPTW 180754Z AUTO 30006KT 8SM CLR M11/M16 A3017 RMK AO2 SLP218 T11111156 =
2018-01-18 01:54 METAR KPTW 180654Z AUTO 31006KT 8SM CLR M11/M15 A3019 RMK AO2 SLP225 T11061150 =
2018-01-18 00:54 METAR KPTW 180554Z AUTO 29006KT 8SM CLR M11/M15 A3021 RMK AO2 SLP231 T11061150
                 11072 21117 58013 =
2018-01-17 23:54 METAR KPTW 180454Z AUTO 30006KT 8SM CLR M11/M15 A3022 RMK AO2 SLP237 T11061150
                 410061117 =
2018-01-17 22:54 METAR KPTW 180354Z AUTO 26003KT 8SM CLR M11/M15 A3024 RMK AO2 SLP243 T11061150 =
2018-01-17 21:54 METAR KPTW 180254Z AUTO 30005KT 8SM CLR M10/M14 A3025 RMK AO2 SLP244 T11001144
                 55006 =
2018-01-17 20:54 METAR KPTW 180154Z AUTO 30005KT 8SM CLR M09/M14 A3024 RMK AO2 SLP243 T10941144 =

Support USWX by starting your Amazon purchase here.